createdAt,value
2023-03-06T00:01:01.942Z,4.90
2023-03-06T00:03:29.791Z,4.95
2023-03-06T00:05:58.867Z,4.68
2023-03-06T00:08:27.586Z,4.53
2023-03-06T00:10:56.620Z,4.70
2023-03-06T00:13:24.554Z,4.57
2023-03-06T00:15:52.439Z,4.43
2023-03-06T00:18:20.336Z,4.10
2023-03-06T00:20:47.817Z,4.62
2023-03-06T00:23:15.552Z,4.40
2023-03-06T00:25:44.744Z,3.90
2023-03-06T00:28:14.854Z,3.92
2023-03-06T00:30:43.709Z,4.35
2023-03-06T00:33:11.286Z,4.07
2023-03-06T00:35:39.988Z,4.30
2023-03-06T00:38:08.638Z,3.85
2023-03-06T00:40:36.378Z,3.83
2023-03-06T00:43:03.815Z,3.37
2023-03-06T00:45:31.635Z,4.78
2023-03-06T00:47:59.165Z,4.20
2023-03-06T00:50:27.686Z,4.05
2023-03-06T00:52:55.533Z,3.92
2023-03-06T00:55:25.467Z,4.40
2023-03-06T00:57:53.026Z,4.10
2023-03-06T01:00:21.061Z,4.63
2023-03-06T01:02:49.330Z,4.43
2023-03-06T01:05:17.046Z,3.42
2023-03-06T01:07:45.001Z,3.87
2023-03-06T01:10:12.891Z,3.65
2023-03-06T01:12:41.494Z,3.80
2023-03-06T01:15:11.194Z,3.47
2023-03-06T01:17:38.785Z,3.47
2023-03-06T01:20:06.940Z,3.37
2023-03-06T01:22:34.728Z,3.35
2023-03-06T01:25:02.240Z,3.40
2023-03-06T01:27:29.746Z,3.42
2023-03-06T01:29:57.761Z,3.65
2023-03-06T01:32:25.557Z,3.85
2023-03-06T01:34:53.229Z,3.83
2023-03-06T01:37:21.103Z,3.80
2023-03-06T01:39:48.735Z,3.83
2023-03-06T01:42:16.275Z,3.35
2023-03-06T01:45:01.549Z,3.72
2023-03-06T01:47:29.342Z,3.37
2023-03-06T01:49:59.185Z,3.83
2023-03-06T01:52:30.350Z,3.45
2023-03-06T01:55:06.152Z,3.62
2023-03-06T01:57:38.800Z,3.25
2023-03-06T02:00:16.181Z,3.30
2023-03-06T02:02:57.730Z,3.43
2023-03-06T02:05:25.248Z,3.20
2023-03-06T02:07:53.656Z,3.62
2023-03-06T02:10:22.010Z,3.87
2023-03-06T02:12:50.841Z,3.40
2023-03-06T02:15:21.600Z,3.63
2023-03-06T02:17:50.769Z,3.45
2023-03-06T02:20:43.673Z,3.17
2023-03-06T02:23:17.484Z,2.87
2023-03-06T02:25:47.545Z,3.70
2023-03-06T02:28:20.888Z,3.60
2023-03-06T02:30:51.587Z,3.45
2023-03-06T02:33:21.934Z,2.87
2023-03-06T02:36:04.079Z,3.00
2023-03-06T02:38:36.642Z,3.37
2023-03-06T02:41:07.345Z,2.97
2023-03-06T02:43:38.407Z,3.10
2023-03-06T02:46:06.691Z,3.10
2023-03-06T02:48:34.371Z,2.85
2023-03-06T02:51:02.347Z,2.80
2023-03-06T02:53:30.065Z,2.67
2023-03-06T02:55:59.640Z,2.83
2023-03-06T02:58:27.644Z,3.08
2023-03-06T03:00:55.143Z,2.95
2023-03-06T03:03:22.806Z,2.65
2023-03-06T03:05:52.837Z,2.77
2023-03-06T03:08:21.279Z,2.80
2023-03-06T03:10:49.038Z,2.90
2023-03-06T03:13:19.560Z,2.70
2023-03-06T03:15:58.288Z,2.85
2023-03-06T03:18:26.517Z,2.90
2023-03-06T03:20:54.802Z,2.78
2023-03-06T03:23:23.613Z,2.72
2023-03-06T03:25:51.578Z,2.35
2023-03-06T03:28:20.385Z,2.80
2023-03-06T03:30:48.207Z,2.87
2023-03-06T03:33:16.154Z,2.90
2023-03-06T03:35:43.896Z,3.17
2023-03-06T03:38:11.443Z,2.97
2023-03-06T03:40:39.346Z,2.55
2023-03-06T03:43:06.935Z,3.40
2023-03-06T03:45:34.470Z,3.20
2023-03-06T03:48:03.148Z,2.87
2023-03-06T03:50:31.111Z,3.00
2023-03-06T03:52:58.672Z,2.75
2023-03-06T03:55:26.706Z,2.70
2023-03-06T03:57:54.595Z,2.80
2023-03-06T04:00:22.377Z,2.97
2023-03-06T04:02:52.103Z,3.20
2023-03-06T04:05:20.290Z,2.78
2023-03-06T04:07:49.005Z,2.50
2023-03-06T04:10:17.157Z,2.97
2023-03-06T04:12:45.106Z,2.97
2023-03-06T04:15:12.801Z,2.80
2023-03-06T04:17:40.825Z,2.70
2023-03-06T04:20:09.661Z,3.03
2023-03-06T04:22:37.474Z,2.30
2023-03-06T04:25:05.784Z,3.05
2023-03-06T04:27:33.366Z,2.70
2023-03-06T04:30:01.260Z,3.03
2023-03-06T04:32:32.265Z,2.97
2023-03-06T04:35:00.248Z,3.10
2023-03-06T04:37:29.809Z,3.53
2023-03-06T04:39:58.869Z,2.70
2023-03-06T04:42:26.442Z,2.62
2023-03-06T04:44:53.952Z,3.37
2023-03-06T04:47:21.763Z,3.28
2023-03-06T04:49:49.337Z,2.78
2023-03-06T04:52:16.897Z,3.45
2023-03-06T04:54:46.041Z,3.37
2023-03-06T04:57:14.199Z,3.57
2023-03-06T04:59:41.803Z,3.22
2023-03-06T05:02:09.859Z,3.58
2023-03-06T05:04:37.312Z,3.28
2023-03-06T05:07:04.885Z,3.12
2023-03-06T05:09:34.107Z,3.13
2023-03-06T05:12:02.897Z,3.55
2023-03-06T05:14:30.844Z,3.42
2023-03-06T05:16:58.719Z,3.67
2023-03-06T05:19:26.337Z,3.67
2023-03-06T05:21:53.817Z,4.17
2023-03-06T05:24:21.576Z,3.55
2023-03-06T05:26:49.086Z,3.70
2023-03-06T05:29:16.904Z,3.72
2023-03-06T05:31:45.284Z,4.00
2023-03-06T05:34:16.526Z,4.37
2023-03-06T05:36:44.074Z,3.62
2023-03-06T05:39:11.895Z,4.03
2023-03-06T05:41:39.500Z,3.92
2023-03-06T05:44:07.030Z,3.75
2023-03-06T05:46:34.837Z,3.43
2023-03-06T05:49:02.478Z,3.87
2023-03-06T05:51:30.150Z,3.67
2023-03-06T05:53:58.100Z,3.70
2023-03-06T05:56:25.657Z,3.50
2023-03-06T05:58:53.241Z,3.97
2023-03-06T06:01:21.061Z,3.15
2023-03-06T06:03:48.934Z,4.00
2023-03-06T06:06:16.598Z,4.10
2023-03-06T06:08:44.357Z,3.35
2023-03-06T06:11:13.210Z,4.00
2023-03-06T06:13:41.278Z,4.43
2023-03-06T06:16:15.755Z,3.58
2023-03-06T06:18:43.971Z,3.70
2023-03-06T06:21:13.429Z,3.97
2023-03-06T06:23:42.022Z,4.10
2023-03-06T06:26:10.717Z,4.25
2023-03-06T06:28:38.357Z,3.60
2023-03-06T06:31:12.190Z,3.80
2023-03-06T06:33:41.235Z,4.18
2023-03-06T06:36:19.892Z,4.00
2023-03-06T06:38:48.941Z,3.70
2023-03-06T06:41:42.373Z,4.03
2023-03-06T06:44:08.433Z,4.20
2023-03-06T06:47:20.925Z,3.65
2023-03-06T06:49:25.208Z,3.50
2023-03-06T06:51:52.715Z,4.35
2023-03-06T06:54:22.240Z,3.90
2023-03-06T06:56:50.632Z,4.50
2023-03-06T06:59:18.340Z,4.28
2023-03-06T07:01:46.128Z,3.80
2023-03-06T07:04:14.691Z,4.47
2023-03-06T07:06:42.947Z,4.93
2023-03-06T07:09:11.151Z,4.70
2023-03-06T07:11:39.804Z,4.80
2023-03-06T07:14:07.600Z,4.43
2023-03-06T07:16:35.369Z,4.32
2023-03-06T07:19:03.292Z,4.50
2023-03-06T07:21:30.959Z,4.82
2023-03-06T07:23:58.697Z,4.28
2023-03-06T07:26:27.827Z,4.57
2023-03-06T07:28:55.466Z,5.37
2023-03-06T07:31:26.372Z,4.93
2023-03-06T07:33:54.940Z,4.82
2023-03-06T07:36:23.698Z,4.32
2023-03-06T07:38:51.258Z,4.63
2023-03-06T07:41:22.338Z,4.90
2023-03-06T07:43:50.318Z,4.32
2023-03-06T07:46:18.009Z,5.22
2023-03-06T07:48:46.238Z,5.12
2023-03-06T07:51:16.278Z,5.63
2023-03-06T07:53:44.368Z,4.45
2023-03-06T07:56:12.961Z,4.37
2023-03-06T07:58:42.646Z,4.95
2023-03-06T08:01:13.119Z,5.18
2023-03-06T08:03:41.224Z,4.70
2023-03-06T08:06:10.932Z,5.43
2023-03-06T08:08:39.898Z,5.65
2023-03-06T08:11:09.286Z,5.32
2023-03-06T08:13:36.915Z,6.32
2023-03-06T08:16:04.898Z,5.97
2023-03-06T08:18:33.180Z,5.50
2023-03-06T08:21:02.582Z,5.90
2023-03-06T08:23:31.114Z,5.32
2023-03-06T08:26:00.646Z,6.37
2023-03-06T08:28:28.979Z,6.07
2023-03-06T08:30:57.566Z,5.25
2023-03-06T08:33:25.512Z,5.45
2023-03-06T08:35:52.967Z,5.28
2023-03-06T08:38:20.586Z,5.62
2023-03-06T08:40:48.475Z,5.60
2023-03-06T08:43:16.195Z,5.78
2023-03-06T08:45:43.741Z,6.15
2023-03-06T08:48:11.578Z,5.37
2023-03-06T08:50:40.984Z,5.18
2023-03-06T08:53:08.611Z,4.43
2023-03-06T08:55:38.466Z,4.93
2023-03-06T08:58:06.075Z,5.12
2023-03-06T09:00:34.481Z,5.68
2023-03-06T09:03:02.407Z,5.80
2023-03-06T09:05:30.017Z,5.40
2023-03-06T09:07:57.849Z,5.28
2023-03-06T09:10:26.785Z,5.53
2023-03-06T09:12:55.442Z,5.35
2023-03-06T09:15:24.158Z,5.82
2023-03-06T09:17:52.462Z,4.67
2023-03-06T09:20:20.499Z,4.03
2023-03-06T09:22:48.082Z,4.50
2023-03-06T09:25:21.840Z,4.30
2023-03-06T09:28:01.800Z,4.07
2023-03-06T09:30:33.266Z,4.20
2023-03-06T09:33:00.842Z,4.70
2023-03-06T09:35:28.497Z,4.45
2023-03-06T09:37:56.300Z,4.55
2023-03-06T09:40:44.038Z,4.75
2023-03-06T09:43:19.363Z,4.90
2023-03-06T09:45:46.967Z,4.72
2023-03-06T09:48:15.840Z,5.47
2023-03-06T09:50:51.608Z,5.35
2023-03-06T09:53:42.308Z,5.93
2023-03-06T09:56:15.283Z,5.23
2023-03-06T09:58:48.588Z,5.53
2023-03-06T10:01:23.950Z,6.45
2023-03-06T10:04:10.102Z,5.78
2023-03-06T10:06:53.379Z,6.25
2023-03-06T10:09:42.620Z,6.07
2023-03-06T10:12:24.880Z,6.25
2023-03-06T10:15:01.042Z,6.05
2023-03-06T10:17:34.567Z,6.70
2023-03-06T10:20:29.366Z,6.53
2023-03-06T10:23:24.739Z,5.97
2023-03-06T10:26:03.561Z,5.68
2023-03-06T10:28:42.749Z,5.93
2023-03-06T10:31:17.991Z,5.93
2023-03-06T10:33:48.232Z,6.05
2023-03-06T10:36:17.857Z,5.30
2023-03-06T10:38:48.368Z,5.87
2023-03-06T10:41:22.213Z,5.85
2023-03-06T10:44:04.869Z,5.45
2023-03-06T10:46:35.889Z,5.70
2023-03-06T10:49:27.024Z,6.20
2023-03-06T10:52:10.358Z,6.65
2023-03-06T10:54:41.623Z,6.57
2023-03-06T10:57:30.365Z,6.57
2023-03-06T11:00:08.494Z,6.28
2023-03-06T11:02:40.929Z,7.70
2023-03-06T11:05:21.203Z,7.15
2023-03-06T11:07:57.606Z,7.10
2023-03-06T11:10:26.054Z,7.50
2023-03-06T11:13:21.457Z,6.85
2023-03-06T11:16:26.046Z,6.67
2023-03-06T11:19:07.960Z,7.25
2023-03-06T11:21:36.900Z,7.10
2023-03-06T11:24:08.574Z,7.60
2023-03-06T11:26:45.262Z,7.07
2023-03-06T11:29:18.936Z,7.03
2023-03-06T11:32:00.271Z,7.00
2023-03-06T11:34:39.162Z,6.70
2023-03-06T11:37:10.478Z,7.55
2023-03-06T11:39:45.691Z,7.07
2023-03-06T11:42:25.802Z,7.73
2023-03-06T11:45:13.577Z,7.62
2023-03-06T11:47:45.440Z,8.23
2023-03-06T11:50:19.333Z,7.18
2023-03-06T11:52:51.152Z,6.47
2023-03-06T11:55:53.249Z,6.67
2023-03-06T11:58:33.893Z,6.82
2023-03-06T12:01:11.966Z,6.87
2023-03-06T12:04:06.687Z,7.00
2023-03-06T12:06:37.008Z,6.65
2023-03-06T12:09:14.262Z,6.67
2023-03-06T12:11:44.412Z,6.95
2023-03-06T12:14:18.196Z,6.85
2023-03-06T12:16:48.562Z,7.53
2023-03-06T12:19:30.851Z,6.57
2023-03-06T12:22:10.450Z,8.23
2023-03-06T12:24:40.990Z,7.32
2023-03-06T12:27:18.773Z,6.55
2023-03-06T12:30:09.720Z,7.80
2023-03-06T12:33:03.993Z,7.07
2023-03-06T12:36:04.284Z,7.50
2023-03-06T12:38:54.260Z,7.78
2023-03-06T12:41:37.940Z,8.68
2023-03-06T12:44:17.344Z,7.47
2023-03-06T12:46:47.600Z,7.55
2023-03-06T12:49:38.805Z,7.50
2023-03-06T12:52:08.230Z,7.57
2023-03-06T12:54:38.345Z,7.00
2023-03-06T12:57:07.850Z,6.72
2023-03-06T12:59:44.308Z,7.87
2023-03-06T13:02:30.937Z,8.40
2023-03-06T13:05:05.087Z,7.50
2023-03-06T13:07:52.821Z,7.85
2023-03-06T13:10:23.735Z,6.68
2023-03-06T13:13:05.048Z,7.25
2023-03-06T13:15:32.843Z,7.70
2023-03-06T13:18:00.942Z,7.22
2023-03-06T13:20:45.761Z,8.40
2023-03-06T13:23:32.447Z,8.02
2023-03-06T13:26:25.361Z,6.87
2023-03-06T13:28:54.598Z,7.67
2023-03-06T13:31:53.877Z,7.70
2023-03-06T13:34:41.446Z,7.57
2023-03-06T13:37:23.430Z,7.50
2023-03-06T13:39:54.321Z,7.78
2023-03-06T13:42:27.693Z,7.57
2023-03-06T13:45:12.050Z,7.80
2023-03-06T13:48:15.857Z,7.60
2023-03-06T13:50:45.026Z,7.97
2023-03-06T13:53:33.581Z,7.55
2023-03-06T13:56:29.526Z,7.53
2023-03-06T13:59:14.238Z,7.05
2023-03-06T14:02:01.907Z,7.53
2023-03-06T14:04:34.637Z,7.47
2023-03-06T14:07:06.733Z,7.78
2023-03-06T14:10:09.699Z,7.37
2023-03-06T14:12:40.930Z,8.70
2023-03-06T14:15:24.217Z,7.65
2023-03-06T14:18:05.351Z,8.55
2023-03-06T14:20:38.908Z,8.02
2023-03-06T14:23:18.730Z,8.13
2023-03-06T14:25:48.327Z,8.57
2023-03-06T14:28:24.248Z,7.87
2023-03-06T14:30:53.289Z,9.13
2023-03-06T14:33:50.470Z,8.45
2023-03-06T14:36:20.860Z,8.73
2023-03-06T14:38:53.939Z,8.40
2023-03-06T14:41:32.877Z,8.57
2023-03-06T14:44:29.780Z,8.15
2023-03-06T14:47:31.598Z,7.97
2023-03-06T14:50:21.761Z,8.00
2023-03-06T14:52:51.225Z,8.60
2023-03-06T14:55:21.420Z,8.27
2023-03-06T14:57:58.000Z,9.23
2023-03-06T15:00:37.673Z,7.78
2023-03-06T15:03:08.101Z,8.63
2023-03-06T15:05:35.969Z,8.60
2023-03-06T15:08:06.811Z,9.10
2023-03-06T15:10:36.104Z,8.45
2023-03-06T15:13:22.376Z,9.15
2023-03-06T15:16:08.548Z,8.37
2023-03-06T15:18:59.931Z,8.70
2023-03-06T15:21:31.533Z,9.07
2023-03-06T15:23:59.656Z,9.25
2023-03-06T15:26:36.890Z,8.68
2023-03-06T15:29:11.020Z,9.10
2023-03-06T15:31:43.893Z,9.20
2023-03-06T15:34:14.388Z,8.50
2023-03-06T15:36:48.188Z,8.10
2023-03-06T15:39:30.044Z,8.77
2023-03-06T15:42:16.041Z,8.80
2023-03-06T15:44:47.252Z,8.63
2023-03-06T15:47:14.816Z,9.45
2023-03-06T15:49:42.492Z,8.68
2023-03-06T15:52:10.457Z,9.15
2023-03-06T15:54:38.136Z,9.23
2023-03-06T15:57:06.730Z,8.50
2023-03-06T15:59:41.734Z,9.15
2023-03-06T16:02:18.490Z,9.52
2023-03-06T16:04:46.711Z,9.52
2023-03-06T16:07:14.798Z,9.47
2023-03-06T16:09:42.847Z,8.93
2023-03-06T16:12:18.738Z,10.32
2023-03-06T16:14:50.194Z,9.43
2023-03-06T16:17:18.082Z,9.15
2023-03-06T16:19:45.573Z,8.90
2023-03-06T16:22:13.763Z,9.70
2023-03-06T16:24:41.832Z,9.93
2023-03-06T16:27:16.936Z,8.77
2023-03-06T16:29:44.817Z,8.68
2023-03-06T16:32:12.800Z,8.47
2023-03-06T16:34:40.322Z,8.15
2023-03-06T16:37:10.992Z,8.30
2023-03-06T16:39:38.493Z,8.73
2023-03-06T16:42:06.218Z,8.90
2023-03-06T16:44:34.047Z,8.80
2023-03-06T16:47:01.557Z,8.68
2023-03-06T16:49:29.224Z,9.35
2023-03-06T16:51:57.221Z,9.20
2023-03-06T16:54:26.173Z,9.75
2023-03-06T16:56:53.682Z,9.37
2023-03-06T16:59:21.640Z,8.43
2023-03-06T17:01:49.326Z,8.90
2023-03-06T17:04:16.997Z,9.55
2023-03-06T17:06:44.789Z,9.73
2023-03-06T17:09:14.271Z,8.60
2023-03-06T17:11:44.869Z,9.60
2023-03-06T17:14:12.792Z,9.18
2023-03-06T17:16:40.865Z,9.70
2023-03-06T17:19:08.702Z,9.43
2023-03-06T17:21:38.493Z,8.37
2023-03-06T17:24:10.169Z,9.25
2023-03-06T17:26:38.904Z,10.20
2023-03-06T17:29:07.238Z,9.88
2023-03-06T17:31:35.099Z,10.35
2023-03-06T17:34:03.149Z,10.73
2023-03-06T17:36:31.551Z,10.73
2023-03-06T17:39:00.675Z,11.63
2023-03-06T17:41:29.314Z,12.27
2023-03-06T17:43:58.230Z,15.00
2023-03-06T17:46:26.298Z,16.07
2023-03-06T17:48:55.158Z,15.35
2023-03-06T17:51:22.871Z,14.87
2023-03-06T17:53:52.206Z,15.10
2023-03-06T17:56:20.132Z,19.45
2023-03-06T17:58:47.801Z,19.23
2023-03-06T18:01:18.062Z,19.95
2023-03-06T18:03:47.879Z,19.15
2023-03-06T18:06:16.351Z,16.83
2023-03-06T18:08:44.550Z,12.40
2023-03-06T18:11:13.398Z,13.57
2023-03-06T18:13:43.071Z,12.10
2023-03-06T18:16:13.311Z,14.68
2023-03-06T18:18:41.402Z,14.93
2023-03-06T18:21:11.093Z,13.60
2023-03-06T18:23:39.531Z,13.90
2023-03-06T18:26:13.952Z,13.95
2023-03-06T18:28:44.579Z,14.52
2023-03-06T18:31:34.652Z,13.95
2023-03-06T18:34:05.061Z,11.77
2023-03-06T18:36:33.568Z,11.90
2023-03-06T18:39:03.841Z,11.65
2023-03-06T18:41:31.881Z,12.02
2023-03-06T18:44:00.888Z,13.62
2023-03-06T18:46:36.631Z,12.10
2023-03-06T18:49:04.773Z,12.37
2023-03-06T18:51:32.882Z,12.75
2023-03-06T18:54:01.816Z,11.75
2023-03-06T18:56:30.257Z,11.10
2023-03-06T18:59:05.714Z,11.95
2023-03-06T19:01:34.228Z,13.53
2023-03-06T19:04:03.446Z,13.85
2023-03-06T19:06:31.260Z,15.45
2023-03-06T19:09:01.495Z,14.05
2023-03-06T19:11:29.709Z,12.00
2023-03-06T19:13:57.354Z,50.33
2023-03-06T19:16:29.694Z,35.40
2023-03-06T19:18:59.399Z,13.60
2023-03-06T19:21:28.465Z,11.85
2023-03-06T19:23:56.740Z,11.15
2023-03-06T19:26:24.406Z,11.27
2023-03-06T19:28:55.211Z,10.77
2023-03-06T19:31:26.014Z,10.43
2023-03-06T19:33:54.864Z,12.10
2023-03-06T19:36:27.828Z,15.77
2023-03-06T19:38:57.088Z,14.43
2023-03-06T19:41:25.334Z,13.25
2023-03-06T19:43:55.602Z,12.73
2023-03-06T19:46:23.958Z,12.43
2023-03-06T19:48:56.552Z,12.73
2023-03-06T19:51:25.102Z,12.60
2023-03-06T19:53:52.827Z,12.98
2023-03-06T19:56:22.857Z,12.98
2023-03-06T19:58:51.781Z,12.48
2023-03-06T20:01:21.186Z,11.30
2023-03-06T20:03:50.652Z,11.97
2023-03-06T20:06:19.643Z,11.32
2023-03-06T20:08:47.607Z,12.75
2023-03-06T20:11:17.580Z,11.18
2023-03-06T20:13:47.435Z,11.40
2023-03-06T20:16:17.007Z,10.67
2023-03-06T20:18:45.590Z,9.93
2023-03-06T20:21:13.772Z,9.98
2023-03-06T20:23:41.842Z,11.25
2023-03-06T20:26:11.929Z,9.85
2023-03-06T20:28:41.201Z,10.70
2023-03-06T20:31:11.360Z,10.70
2023-03-06T20:33:39.766Z,11.52
2023-03-06T20:36:16.006Z,11.43
2023-03-06T20:38:44.948Z,10.90
2023-03-06T20:41:20.697Z,10.50
2023-03-06T20:43:49.001Z,11.60
2023-03-06T20:46:17.598Z,11.40
2023-03-06T20:48:47.631Z,11.00
2023-03-06T20:51:22.399Z,11.40
2023-03-06T20:53:51.374Z,11.40
2023-03-06T20:56:21.273Z,10.23
2023-03-06T20:58:48.741Z,10.25
2023-03-06T21:01:24.237Z,10.95
2023-03-06T21:03:52.689Z,12.82
2023-03-06T21:06:20.916Z,12.00
2023-03-06T21:08:49.120Z,11.32
2023-03-06T21:11:17.884Z,13.07
2023-03-06T21:13:45.791Z,14.27
2023-03-06T21:16:15.905Z,14.45
2023-03-06T21:18:44.134Z,13.90
2023-03-06T21:21:20.734Z,14.27
2023-03-06T21:23:49.065Z,13.18
2023-03-06T21:26:21.706Z,13.35
2023-03-06T21:28:49.997Z,13.62
2023-03-06T21:31:19.117Z,11.83
2023-03-06T21:33:47.677Z,12.05
2023-03-06T21:36:16.018Z,11.82
2023-03-06T21:38:43.638Z,13.00
2023-03-06T21:41:25.965Z,12.07
2023-03-06T21:43:58.985Z,12.87
2023-03-06T21:46:27.848Z,13.88
2023-03-06T21:48:57.602Z,14.45
2023-03-06T21:51:26.099Z,12.48
2023-03-06T21:53:54.408Z,13.68
2023-03-06T21:56:24.994Z,14.10
2023-03-06T21:58:53.023Z,12.48
2023-03-06T22:01:23.196Z,12.45
2023-03-06T22:03:51.482Z,11.93
2023-03-06T22:06:21.675Z,11.68
2023-03-06T22:08:49.413Z,11.57
2023-03-06T22:11:19.867Z,12.68
2023-03-06T22:13:48.171Z,12.10
2023-03-06T22:16:16.038Z,11.82
2023-03-06T22:18:52.268Z,12.05
2023-03-06T22:21:21.773Z,12.17
2023-03-06T22:23:53.661Z,11.80
2023-03-06T22:26:21.518Z,11.35
2023-03-06T22:28:49.334Z,11.90
2023-03-06T22:31:23.854Z,12.70
2023-03-06T22:33:55.673Z,13.07
2023-03-06T22:36:24.124Z,12.00
2023-03-06T22:38:58.669Z,12.48
2023-03-06T22:41:27.089Z,12.15
2023-03-06T22:43:57.136Z,13.23
2023-03-06T22:46:25.478Z,13.37
2023-03-06T22:48:56.034Z,13.65
2023-03-06T22:51:23.817Z,12.82
2023-03-06T22:53:51.500Z,13.35
2023-03-06T22:56:20.424Z,13.27
2023-03-06T22:58:48.821Z,13.70
2023-03-06T23:01:18.616Z,11.85
2023-03-06T23:03:48.401Z,13.15
2023-03-06T23:06:25.427Z,12.63
2023-03-06T23:09:04.550Z,12.55
2023-03-06T23:11:32.661Z,12.10
2023-03-06T23:14:22.975Z,12.45
2023-03-06T23:17:09.260Z,12.95
2023-03-06T23:19:55.487Z,12.10
2023-03-06T23:22:41.621Z,12.35
2023-03-06T23:25:27.569Z,12.57
2023-03-06T23:27:55.731Z,12.50
2023-03-06T23:30:23.409Z,12.57
2023-03-06T23:32:50.893Z,12.48
2023-03-06T23:35:18.735Z,12.32
2023-03-06T23:37:49.214Z,12.93
2023-03-06T23:40:17.506Z,12.60
2023-03-06T23:42:45.383Z,11.80
2023-03-06T23:45:12.926Z,11.35
2023-03-06T23:47:40.741Z,12.90
2023-03-06T23:50:09.085Z,12.00
2023-03-06T23:52:36.621Z,11.65
2023-03-06T23:55:05.645Z,11.32
2023-03-06T23:57:33.516Z,11.43
